Newport News, VA (23601)

4:26 PM EDT on August 04, 2015 (GMT -0400)
Northampton | | Change Station
CLOSE
Current Station
Personal Weather Station
Location: Hampton, VA
Elevation: 23 ft
Nearby Weather Stations

Elev 23 ft 37.05 °N, 76.42 °W | Updated 11 minutes ago

Partly Cloudy
Partly Cloudy
93.6 °F
Feels Like 111 °F
N
3.1
Wind Variable Wind from SW
Gusts 6.9 mph

Today
High -- | Low -- °F
--% Chance of Precip.
Yesterday
High -- | Low -- °F
Precip. -- in
6:13 AM 8:10 PM
Waning Gibbous, 75% visible
Pressure 29.92 in
Visibility 10.0 miles
Clouds Scattered Clouds 5000 ft
Mostly Cloudy 7000 ft
Heat Index 111 °F
Dew Point 79 °F
Humidity 63%
Rainfall 0.00 in
Snow Depth Not available.
UV 4 out of 12
Pollen 6.70 out of 12
Air Quality Not available.
Flu Activity Not available.
METAR KPHF 041954Z 21011G19KT 10SM SCT050 BKN070 33/22 A2992 RMK AO2 SLP130 T03330222

More Conditions Fewer Conditions

Pressure 29.92 in
Visibility 10.0 miles
Clouds Scattered Clouds 5000 ft
Mostly Cloudy 7000 ft
Heat Index 111 °F
Dew Point 79 °F
Humidity 63%
Rainfall 0.00 in
Snow Depth Not available.
UV 4 out of 12
Pollen 6.70 out of 12
Air Quality Not available.
Flu Activity Not available.
METAR KPHF 041954Z 21011G19KT 10SM SCT050 BKN070 33/22 A2992 RMK AO2 SLP130 T03330222

More Conditions Fewer Conditions

10-Day Weather Forecast

×

Almanac

Astronomy

Aug. 04, 2015 Rise Set
Actual Time
Civil Twilight
Nautical Twilight
Astronomical Twilight
Moon
Length of Visible Light
Length of Day
Tomorrow will be .
, % of the Moon is Illuminated

Today's Extremes

State Highs State Lows

Community

WunderPhotos

Upload Photos

1,843,963 photos uploaded!

WunderBlogs® & News

Nearby

Air Quality

  Air Quality AQ Index Pollutant
Not available.

Snow Depth

Station Depth Elevation

Earthquake Activity

City Distance Mag. Time & Date
Minimum magnitude displayed is 2.5.

Coastal Water Temperatures

Place Temperature

Stations

Nearby Weather Stations

Station Location Temp. Windchill Dew Point Humidity Wind Precip. Elev Updated Type